createdAt,value
2018-12-07T00:00:42.806Z,0
2018-12-07T00:01:50.845Z,0
2018-12-07T00:02:58.925Z,0
2018-12-07T00:04:06.978Z,0
2018-12-07T00:05:15.056Z,0
2018-12-07T00:06:23.104Z,0
2018-12-07T00:07:31.146Z,0
2018-12-07T00:08:39.227Z,0
2018-12-07T00:09:47.302Z,0
2018-12-07T00:10:55.377Z,0
2018-12-07T00:12:03.415Z,0
2018-12-07T00:13:11.453Z,0
2018-12-07T00:14:19.532Z,0
2018-12-07T00:15:27.586Z,0
2018-12-07T00:16:35.656Z,0
2018-12-07T00:17:43.733Z,0
2018-12-07T00:18:51.787Z,0
2018-12-07T00:19:59.848Z,0
2018-12-07T00:21:07.916Z,0
2018-12-07T00:22:16.076Z,0
2018-12-07T00:23:24.035Z,0
2018-12-07T00:24:32.110Z,0
2018-12-07T00:25:40.171Z,0
2018-12-07T00:26:48.227Z,0
2018-12-07T00:27:56.281Z,0
2018-12-07T00:29:04.332Z,0
2018-12-07T00:30:12.393Z,0
2018-12-07T00:31:20.448Z,0
2018-12-07T00:32:28.517Z,0
2018-12-07T00:33:36.567Z,0
2018-12-07T00:34:44.639Z,0
2018-12-07T00:35:52.698Z,0
2018-12-07T00:37:00.746Z,0
2018-12-07T00:38:08.819Z,0
2018-12-07T00:39:16.884Z,0
2018-12-07T00:40:24.954Z,0
2018-12-07T00:41:33.009Z,0
2018-12-07T00:42:41.035Z,0
2018-12-07T00:43:49.119Z,0
2018-12-07T00:44:57.180Z,0
2018-12-07T00:46:05.248Z,0
2018-12-07T00:47:13.317Z,0
2018-12-07T00:48:21.341Z,0
2018-12-07T00:49:29.428Z,0
2018-12-07T00:50:37.495Z,0
2018-12-07T00:51:45.542Z,0
2018-12-07T00:52:53.624Z,0
2018-12-07T00:54:01.648Z,0
2018-12-07T00:55:09.778Z,0
2018-12-07T00:56:17.794Z,0
2018-12-07T00:57:25.863Z,0
2018-12-07T00:58:33.906Z,0
2018-12-07T00:59:41.989Z,0
2018-12-07T01:00:50.040Z,0
2018-12-07T01:01:58.116Z,0
2018-12-07T01:03:06.173Z,0
2018-12-07T01:04:14.247Z,0
2018-12-07T01:05:22.291Z,0
2018-12-07T01:06:30.362Z,0
2018-12-07T01:07:38.426Z,0
2018-12-07T01:08:46.480Z,0
2018-12-07T01:09:54.538Z,0
2018-12-07T01:11:02.604Z,0
2018-12-07T01:12:10.651Z,0
2018-12-07T01:13:18.725Z,0
2018-12-07T01:14:26.782Z,0
2018-12-07T01:15:34.861Z,0
2018-12-07T01:16:42.904Z,0
2018-12-07T01:17:50.950Z,0
2018-12-07T01:18:59.032Z,0
2018-12-07T01:20:07.088Z,0
2018-12-07T01:21:15.148Z,0
2018-12-07T01:22:23.231Z,0
2018-12-07T01:23:31.245Z,0
2018-12-07T01:24:39.342Z,0
2018-12-07T01:25:47.380Z,0
2018-12-07T01:26:55.470Z,0
2018-12-07T01:28:03.512Z,0
2018-12-07T01:29:11.540Z,0
2018-12-07T01:30:19.666Z,0
2018-12-07T01:31:27.709Z,0
2018-12-07T01:32:35.763Z,0
2018-12-07T01:33:43.820Z,0
2018-12-07T01:34:51.885Z,0
2018-12-07T01:35:59.959Z,0
2018-12-07T01:37:08.002Z,0
2018-12-07T01:38:16.068Z,0
2018-12-07T01:39:24.130Z,0
2018-12-07T01:40:32.194Z,0
2018-12-07T01:41:40.238Z,0
2018-12-07T01:42:48.301Z,0
2018-12-07T01:43:56.377Z,0
2018-12-07T01:45:04.525Z,0
2018-12-07T01:46:12.503Z,0
2018-12-07T01:47:20.550Z,0
2018-12-07T01:48:28.620Z,0
2018-12-07T01:49:36.707Z,0
2018-12-07T01:50:44.735Z,0
2018-12-07T01:51:52.801Z,0
2018-12-07T01:53:00.852Z,0
2018-12-07T01:54:08.931Z,0
2018-12-07T01:55:16.989Z,0
2018-12-07T01:56:25.033Z,0
2018-12-07T01:57:33.098Z,0
2018-12-07T01:58:41.143Z,0
2018-12-07T01:59:49.224Z,0
2018-12-07T02:00:57.292Z,0
2018-12-07T02:02:05.350Z,0
2018-12-07T02:03:13.420Z,0
2018-12-07T02:04:21.451Z,0
2018-12-07T02:05:29.538Z,0
2018-12-07T02:06:37.593Z,0
2018-12-07T02:07:45.659Z,0
2018-12-07T02:08:53.716Z,0
2018-12-07T02:10:01.751Z,0
2018-12-07T02:11:09.845Z,0
2018-12-07T02:12:17.905Z,0
2018-12-07T02:13:25.959Z,0
2018-12-07T02:14:34.011Z,0
2018-12-07T02:15:42.068Z,0
2018-12-07T02:16:50.157Z,0
2018-12-07T02:17:58.220Z,0
2018-12-07T02:19:06.263Z,0
2018-12-07T02:20:14.329Z,0
2018-12-07T02:21:22.390Z,0
2018-12-07T02:22:30.456Z,0
2018-12-07T02:23:38.518Z,0
2018-12-07T02:24:46.568Z,0
2018-12-07T02:25:54.634Z,0
2018-12-07T02:27:02.798Z,0
2018-12-07T02:28:10.734Z,0
2018-12-07T02:29:18.806Z,0
2018-12-07T02:30:26.880Z,0
2018-12-07T02:31:34.943Z,0
2018-12-07T02:32:42.999Z,0
2018-12-07T02:33:51.041Z,0
2018-12-07T02:34:59.129Z,0
2018-12-07T02:36:07.176Z,0
2018-12-07T02:37:15.233Z,0
2018-12-07T02:38:23.306Z,0
2018-12-07T02:39:31.341Z,0
2018-12-07T02:40:39.424Z,0
2018-12-07T02:41:47.493Z,0
2018-12-07T02:42:55.551Z,0
2018-12-07T02:44:03.616Z,0
2018-12-07T02:45:11.675Z,0
2018-12-07T02:46:19.726Z,0
2018-12-07T02:47:27.784Z,0
2018-12-07T02:48:35.859Z,0
2018-12-07T02:49:43.912Z,0
2018-12-07T02:50:51.983Z,0
2018-12-07T02:52:00.053Z,0
2018-12-07T02:53:08.115Z,0
2018-12-07T02:54:16.169Z,0
2018-12-07T02:55:24.239Z,0
2018-12-07T02:56:32.303Z,0
2018-12-07T02:57:40.352Z,0
2018-12-07T02:58:48.425Z,0
2018-12-07T02:59:56.476Z,0
2018-12-07T03:01:04.525Z,0
2018-12-07T03:02:12.590Z,0
2018-12-07T03:03:20.647Z,0
2018-12-07T03:04:28.714Z,0
2018-12-07T03:05:36.759Z,0
2018-12-07T03:06:44.850Z,0
2018-12-07T03:07:52.892Z,0
2018-12-07T03:09:00.922Z,0
2018-12-07T03:10:09.022Z,0
2018-12-07T03:11:17.089Z,0
2018-12-07T03:12:25.142Z,0
2018-12-07T03:13:33.294Z,0
2018-12-07T03:14:41.239Z,0
2018-12-07T03:15:49.331Z,0
2018-12-07T03:16:57.375Z,0
2018-12-07T03:18:05.446Z,0
2018-12-07T03:19:13.494Z,0
2018-12-07T03:20:21.567Z,0
2018-12-07T03:21:29.628Z,0
2018-12-07T03:22:37.677Z,0
2018-12-07T03:23:45.744Z,0
2018-12-07T03:24:53.852Z,0
2018-12-07T03:26:01.881Z,0
2018-12-07T03:27:09.936Z,0
2018-12-07T03:28:17.983Z,0
2018-12-07T03:29:26.150Z,0
2018-12-07T03:30:34.118Z,0
2018-12-07T03:31:42.182Z,0
2018-12-07T03:32:50.230Z,0
2018-12-07T03:33:58.297Z,0
2018-12-07T03:35:06.365Z,0
2018-12-07T03:36:14.412Z,0
2018-12-07T03:37:22.489Z,0
2018-12-07T03:38:30.551Z,0
2018-12-07T03:39:38.612Z,0
2018-12-07T03:40:46.666Z,0
2018-12-07T03:41:54.732Z,0
2018-12-07T03:43:02.796Z,0
2018-12-07T03:44:10.836Z,0
2018-12-07T03:45:18.910Z,0
2018-12-07T03:46:26.971Z,0
2018-12-07T03:47:35.036Z,0
2018-12-07T03:48:43.110Z,0
2018-12-07T03:49:51.131Z,0
2018-12-07T03:50:59.220Z,0
2018-12-07T03:52:07.279Z,0
2018-12-07T03:53:15.337Z,0
2018-12-07T03:54:23.396Z,0
2018-12-07T03:55:31.446Z,0
2018-12-07T03:56:39.525Z,0
2018-12-07T03:57:47.580Z,0
2018-12-07T03:58:55.655Z,0
2018-12-07T04:00:03.729Z,0
2018-12-07T04:01:11.759Z,0
2018-12-07T04:02:19.846Z,0
2018-12-07T04:03:27.870Z,0
2018-12-07T04:04:35.946Z,0
2018-12-07T04:05:44.013Z,0
2018-12-07T04:06:52.078Z,0
2018-12-07T04:08:00.129Z,0
2018-12-07T04:09:08.200Z,0
2018-12-07T04:10:16.266Z,0
2018-12-07T04:11:24.321Z,0
2018-12-07T04:12:32.388Z,0
2018-12-07T04:13:40.451Z,0
2018-12-07T04:14:48.518Z,0
2018-12-07T04:15:56.566Z,0
2018-12-07T04:17:04.621Z,0
2018-12-07T04:18:12.687Z,0
2018-12-07T04:19:20.742Z,0
2018-12-07T04:20:28.808Z,0
2018-12-07T04:21:36.871Z,0
2018-12-07T04:22:44.926Z,0
2018-12-07T04:23:53.016Z,0
2018-12-07T04:25:01.012Z,0
2018-12-07T04:26:09.105Z,0
2018-12-07T04:27:17.180Z,0
2018-12-07T04:28:25.248Z,0
2018-12-07T04:29:33.307Z,0
2018-12-07T04:30:41.327Z,0
2018-12-07T04:31:49.426Z,0
2018-12-07T04:32:57.481Z,0
2018-12-07T04:34:05.553Z,0
2018-12-07T04:35:13.604Z,0
2018-12-07T04:36:21.643Z,0
2018-12-07T04:37:29.736Z,0
2018-12-07T04:38:37.779Z,0
2018-12-07T04:39:45.848Z,0
2018-12-07T04:40:53.915Z,0
2018-12-07T04:42:02.004Z,0
2018-12-07T04:43:10.029Z,0
2018-12-07T04:44:18.086Z,0
2018-12-07T04:45:26.163Z,0
2018-12-07T04:46:34.228Z,0
2018-12-07T04:47:42.277Z,0
2018-12-07T04:48:50.333Z,0
2018-12-07T04:49:58.397Z,0
2018-12-07T04:51:06.460Z,0
2018-12-07T04:52:14.510Z,0
2018-12-07T04:53:22.608Z,0
2018-12-07T04:54:30.638Z,0
2018-12-07T04:55:38.704Z,0
2018-12-07T04:56:46.759Z,0
2018-12-07T04:57:54.821Z,0
2018-12-07T04:59:02.883Z,0
2018-12-07T05:00:10.930Z,0
2018-12-07T05:01:19.095Z,0
2018-12-07T05:02:27.067Z,0
2018-12-07T05:03:35.131Z,0
2018-12-07T05:04:43.190Z,0
2018-12-07T05:05:51.220Z,0
2018-12-07T05:06:59.310Z,0
2018-12-07T05:08:07.383Z,0
2018-12-07T05:09:15.447Z,0
2018-12-07T05:10:23.493Z,0
2018-12-07T05:11:31.534Z,0
2018-12-07T05:12:39.620Z,0
2018-12-07T05:13:47.830Z,0
2018-12-07T05:14:55.733Z,0
2018-12-07T05:16:03.804Z,0
2018-12-07T05:17:11.871Z,0
2018-12-07T05:18:19.928Z,0
2018-12-07T05:19:28.001Z,0
2018-12-07T05:20:36.052Z,0
2018-12-07T05:21:44.125Z,0
2018-12-07T05:22:52.180Z,0
2018-12-07T05:24:00.228Z,0
2018-12-07T05:25:08.280Z,0
2018-12-07T05:26:16.352Z,0
2018-12-07T05:27:24.419Z,0
2018-12-07T05:28:32.472Z,0
2018-12-07T05:29:40.531Z,0
2018-12-07T05:30:48.586Z,0
2018-12-07T05:31:56.648Z,0
2018-12-07T05:33:04.729Z,0
2018-12-07T05:34:12.778Z,0
2018-12-07T05:35:20.831Z,0
2018-12-07T05:36:28.909Z,0
2018-12-07T05:37:36.970Z,0
2018-12-07T05:38:45.025Z,0
2018-12-07T05:39:54.685Z,0
2018-12-07T05:41:01.121Z,0
2018-12-07T05:42:09.216Z,0
2018-12-07T05:43:17.271Z,0
2018-12-07T05:44:25.352Z,0
2018-12-07T05:45:33.403Z,0
2018-12-07T05:46:41.416Z,0
2018-12-07T05:47:49.511Z,0
2018-12-07T05:48:57.570Z,0
2018-12-07T05:50:05.638Z,0
2018-12-07T05:51:13.689Z,0
2018-12-07T05:52:21.738Z,0
2018-12-07T05:53:29.822Z,0
2018-12-07T05:54:37.876Z,0
2018-12-07T05:55:45.944Z,0
2018-12-07T05:56:53.997Z,0
2018-12-07T05:58:02.060Z,0
2018-12-07T05:59:10.155Z,0
2018-12-07T06:00:18.182Z,0
2018-12-07T06:01:26.252Z,0
2018-12-07T06:02:34.306Z,0
2018-12-07T06:03:42.379Z,0
2018-12-07T06:04:50.872Z,0
2018-12-07T06:05:58.485Z,0
2018-12-07T06:07:06.995Z,0
2018-12-07T06:08:14.616Z,0
2018-12-07T06:09:22.659Z,0
2018-12-07T06:10:30.719Z,0
2018-12-07T06:11:39.033Z,0
2018-12-07T06:12:46.914Z,0
2018-12-07T06:13:55.208Z,0
2018-12-07T06:15:03.046Z,0
2018-12-07T06:16:11.010Z,0
2018-12-07T06:17:19.115Z,0
2018-12-07T06:18:27.151Z,0
2018-12-07T06:19:35.227Z,0
2018-12-07T06:20:43.279Z,0
2018-12-07T06:21:51.331Z,0
2018-12-07T06:22:59.412Z,0
2018-12-07T06:24:08.544Z,0
2018-12-07T06:25:15.557Z,0
2018-12-07T06:26:23.612Z,0
2018-12-07T06:27:31.625Z,0
2018-12-07T06:28:39.741Z,0
2018-12-07T06:29:47.767Z,0
2018-12-07T06:30:55.845Z,0
2018-12-07T06:32:03.888Z,0
2018-12-07T06:33:11.964Z,0
2018-12-07T06:34:20.022Z,0
2018-12-07T06:35:28.095Z,0
2018-12-07T06:36:36.143Z,0
2018-12-07T06:37:44.209Z,0
2018-12-07T06:38:52.250Z,0
2018-12-07T06:40:00.322Z,0
2018-12-07T06:41:08.378Z,0
2018-12-07T06:42:16.453Z,0
2018-12-07T06:43:24.526Z,0
2018-12-07T06:44:32.601Z,0
2018-12-07T06:45:40.621Z,0
2018-12-07T06:46:48.679Z,0
2018-12-07T06:47:56.759Z,0
2018-12-07T06:49:04.908Z,0
2018-12-07T06:50:12.882Z,0
2018-12-07T06:51:20.912Z,0
2018-12-07T06:52:29.004Z,0
2018-12-07T06:53:37.065Z,0
2018-12-07T06:54:45.107Z,0
2018-12-07T06:55:53.171Z,0
2018-12-07T06:57:01.210Z,0
2018-12-07T06:58:09.303Z,0
2018-12-07T06:59:17.364Z,0
2018-12-07T07:00:25.432Z,0
2018-12-07T07:01:33.484Z,0
2018-12-07T07:02:41.530Z,0
2018-12-07T07:03:49.642Z,0
2018-12-07T07:04:57.671Z,0
2018-12-07T07:06:05.826Z,5
2018-12-07T07:07:13.810Z,0
2018-12-07T07:08:21.853Z,0
2018-12-07T07:09:29.921Z,0
2018-12-07T07:10:37.971Z,0
2018-12-07T07:11:46.046Z,0
2018-12-07T07:12:54.109Z,5
2018-12-07T07:14:02.166Z,5
2018-12-07T07:15:10.224Z,5
2018-12-07T07:16:23.010Z,5
2018-12-07T07:17:26.325Z,5
2018-12-07T07:18:34.410Z,5
2018-12-07T07:19:42.465Z,5
2018-12-07T07:20:50.529Z,5
2018-12-07T07:21:58.616Z,5
2018-12-07T07:23:06.652Z,5
2018-12-07T07:24:14.726Z,5
2018-12-07T07:25:22.767Z,10
2018-12-07T07:26:30.911Z,10
2018-12-07T07:27:38.889Z,10
2018-12-07T07:28:46.956Z,10
2018-12-07T07:29:55.026Z,10
2018-12-07T07:31:03.090Z,10
2018-12-07T07:32:11.109Z,10
2018-12-07T07:33:19.202Z,15
2018-12-07T07:34:27.269Z,15
2018-12-07T07:35:35.319Z,15
2018-12-07T07:36:43.386Z,15
2018-12-07T07:37:51.439Z,20
2018-12-07T07:38:59.513Z,20
2018-12-07T07:40:07.582Z,20
2018-12-07T07:41:15.618Z,15
2018-12-07T07:42:23.688Z,15
2018-12-07T07:43:31.754Z,15
2018-12-07T07:44:39.822Z,10
2018-12-07T07:45:47.885Z,10
2018-12-07T07:46:55.935Z,15
2018-12-07T07:48:03.997Z,15
2018-12-07T07:49:12.069Z,15
2018-12-07T07:50:20.108Z,20
2018-12-07T07:51:28.173Z,25
2018-12-07T07:52:36.262Z,25
2018-12-07T07:53:44.306Z,25
2018-12-07T07:54:52.361Z,20
2018-12-07T07:56:00.428Z,20
2018-12-07T07:57:08.491Z,25
2018-12-07T07:58:16.536Z,25
2018-12-07T07:59:24.610Z,25
2018-12-07T08:00:32.679Z,25
2018-12-07T08:01:40.728Z,25
2018-12-07T08:02:48.784Z,35
2018-12-07T08:03:56.871Z,35
2018-12-07T08:05:04.933Z,30
2018-12-07T08:06:13.023Z,35
2018-12-07T08:07:21.022Z,30
2018-12-07T08:08:29.104Z,25
2018-12-07T08:09:37.160Z,25
2018-12-07T08:10:45.235Z,30
2018-12-07T08:11:53.288Z,35
2018-12-07T08:13:01.320Z,40
2018-12-07T08:14:09.420Z,45
2018-12-07T08:15:17.468Z,40
2018-12-07T08:16:25.530Z,30
2018-12-07T08:17:33.682Z,30
2018-12-07T08:18:41.628Z,30
2018-12-07T08:19:49.719Z,35
2018-12-07T08:20:57.776Z,35
2018-12-07T08:22:05.855Z,35
2018-12-07T08:23:14.784Z,45
2018-12-07T08:24:21.985Z,45
2018-12-07T08:25:30.021Z,45
2018-12-07T08:26:38.612Z,50
2018-12-07T08:27:46.750Z,55
2018-12-07T08:28:54.776Z,60
2018-12-07T08:30:02.874Z,60
2018-12-07T08:31:10.323Z,65
2018-12-07T08:32:18.403Z,60
2018-12-07T08:33:26.470Z,65
2018-12-07T08:34:34.514Z,60
2018-12-07T08:35:42.574Z,60
2018-12-07T08:36:50.627Z,70
2018-12-07T08:37:58.713Z,60
2018-12-07T08:39:06.763Z,70
2018-12-07T08:40:14.824Z,75
2018-12-07T08:41:22.886Z,65
2018-12-07T08:42:30.933Z,65
2018-12-07T08:43:38.994Z,90
2018-12-07T08:44:47.066Z,60
2018-12-07T08:45:55.129Z,55
2018-12-07T08:47:03.230Z,65
2018-12-07T08:48:11.232Z,55
2018-12-07T08:49:19.332Z,55
2018-12-07T08:50:27.374Z,60
2018-12-07T08:51:35.452Z,50
2018-12-07T08:52:43.507Z,45
2018-12-07T08:53:51.536Z,45
2018-12-07T08:54:59.624Z,50
2018-12-07T08:56:07.683Z,55
2018-12-07T08:57:15.771Z,55
2018-12-07T08:58:23.812Z,60
2018-12-07T08:59:31.857Z,60
2018-12-07T09:00:39.938Z,90
2018-12-07T09:01:48.002Z,85
2018-12-07T09:02:56.055Z,85
2018-12-07T09:04:04.113Z,90
2018-12-07T09:05:12.895Z,85
2018-12-07T09:06:20.253Z,85
2018-12-07T09:07:28.312Z,85
2018-12-07T09:08:36.360Z,80
2018-12-07T09:09:44.434Z,90
2018-12-07T09:10:52.494Z,95
2018-12-07T09:12:00.560Z,110
2018-12-07T09:13:08.612Z,110
2018-12-07T09:14:16.690Z,85
2018-12-07T09:15:24.743Z,90
2018-12-07T09:16:32.810Z,80
2018-12-07T09:17:40.862Z,85
2018-12-07T09:18:48.937Z,90
2018-12-07T09:19:56.992Z,85
2018-12-07T09:21:05.043Z,90
2018-12-07T09:22:13.111Z,95
2018-12-07T09:23:21.156Z,95
2018-12-07T09:24:29.240Z,80
2018-12-07T09:25:37.292Z,85
2018-12-07T09:26:45.375Z,90
2018-12-07T09:27:53.425Z,105
2018-12-07T09:29:01.460Z,110
2018-12-07T09:30:09.533Z,90
2018-12-07T09:31:17.604Z,80
2018-12-07T09:32:25.667Z,90
2018-12-07T09:33:33.733Z,85
2018-12-07T09:34:41.788Z,90
2018-12-07T09:35:49.866Z,75
2018-12-07T09:36:57.920Z,70
2018-12-07T09:38:12.916Z,65
2018-12-07T09:39:14.044Z,65
2018-12-07T09:40:22.105Z,80
2018-12-07T09:41:30.172Z,80
2018-12-07T09:42:38.232Z,80
2018-12-07T09:43:46.293Z,80
2018-12-07T09:44:54.353Z,95
2018-12-07T09:46:02.426Z,95
2018-12-07T09:47:10.485Z,85
2018-12-07T09:48:18.521Z,90
2018-12-07T09:49:26.604Z,95
2018-12-07T09:50:34.670Z,105
2018-12-07T09:51:42.716Z,110
2018-12-07T09:52:50.774Z,100
2018-12-07T09:53:58.839Z,90
2018-12-07T09:55:06.950Z,85
2018-12-07T09:56:15.012Z,105
2018-12-07T09:57:23.031Z,85
2018-12-07T09:58:31.083Z,75
2018-12-07T09:59:39.183Z,65
2018-12-07T10:00:47.223Z,75
2018-12-07T10:01:55.292Z,95
2018-12-07T10:03:03.335Z,85
2018-12-07T10:04:11.392Z,75
2018-12-07T10:05:19.475Z,75
2018-12-07T10:06:27.539Z,85
2018-12-07T10:07:25.644Z,75
2018-12-07T10:08:33.696Z,85
2018-12-07T10:09:41.738Z,85
2018-12-07T10:10:49.916Z,85
2018-12-07T10:11:57.875Z,80
2018-12-07T10:13:08.044Z,120
2018-12-07T10:14:14.015Z,95
2018-12-07T10:15:22.067Z,100
2018-12-07T10:16:30.114Z,115
2018-12-07T10:17:38.209Z,125
2018-12-07T10:18:46.271Z,140
2018-12-07T10:19:54.323Z,155
2018-12-07T10:21:02.387Z,165
2018-12-07T10:22:10.448Z,170
2018-12-07T10:23:18.514Z,170
2018-12-07T10:24:26.562Z,170
2018-12-07T10:25:34.625Z,170
2018-12-07T10:26:42.699Z,170
2018-12-07T10:27:50.733Z,180
2018-12-07T10:28:58.813Z,185
2018-12-07T10:30:06.891Z,185
2018-12-07T10:31:14.946Z,190
2018-12-07T10:32:23.006Z,185
2018-12-07T10:33:31.051Z,185
2018-12-07T10:34:39.133Z,185
2018-12-07T10:35:47.194Z,180
2018-12-07T10:36:55.260Z,185
2018-12-07T10:38:03.314Z,190
2018-12-07T10:39:11.356Z,195
2018-12-07T10:40:19.452Z,205
2018-12-07T10:41:27.519Z,200
2018-12-07T10:42:35.572Z,185
2018-12-07T10:43:43.640Z,205
2018-12-07T10:44:51.683Z,205
2018-12-07T10:45:59.756Z,225
2018-12-07T10:47:07.823Z,235
2018-12-07T10:48:15.884Z,260
2018-12-07T10:49:23.958Z,245
2018-12-07T10:50:32.011Z,270
2018-12-07T10:51:40.071Z,265
2018-12-07T10:52:48.130Z,240
2018-12-07T10:53:56.203Z,215
2018-12-07T10:55:04.262Z,260
2018-12-07T10:56:12.325Z,190
2018-12-07T10:57:20.387Z,155
2018-12-07T10:58:28.462Z,150
2018-12-07T10:59:36.518Z,120
2018-12-07T11:00:44.572Z,120
2018-12-07T11:01:52.638Z,125
2018-12-07T11:03:00.722Z,110
2018-12-07T11:04:08.766Z,110
2018-12-07T11:05:16.836Z,105
2018-12-07T11:06:24.899Z,125
2018-12-07T11:07:32.963Z,125
2018-12-07T11:08:41.000Z,90
2018-12-07T11:09:49.085Z,110
2018-12-07T11:10:57.208Z,130
2018-12-07T11:12:05.223Z,140
2018-12-07T11:13:13.281Z,140
2018-12-07T11:14:21.314Z,160
2018-12-07T11:15:29.397Z,190
2018-12-07T11:16:37.466Z,190
2018-12-07T11:17:45.524Z,200
2018-12-07T11:18:53.586Z,230
2018-12-07T11:20:01.626Z,215
2018-12-07T11:21:09.734Z,205
2018-12-07T11:22:17.770Z,175
2018-12-07T11:23:25.849Z,200
2018-12-07T11:24:33.902Z,190
2018-12-07T11:25:41.979Z,155
2018-12-07T11:26:50.031Z,225
2018-12-07T11:27:58.092Z,210
2018-12-07T11:29:06.157Z,185
2018-12-07T11:30:14.239Z,150
2018-12-07T11:31:22.291Z,125
2018-12-07T11:32:30.350Z,115
2018-12-07T11:33:38.413Z,160
2018-12-07T11:34:46.525Z,160
2018-12-07T11:35:54.542Z,175
2018-12-07T11:37:02.603Z,245
2018-12-07T11:38:10.645Z,255
2018-12-07T11:39:18.735Z,250
2018-12-07T11:40:28.613Z,255
2018-12-07T11:41:34.859Z,245
2018-12-07T11:42:42.932Z,235
2018-12-07T11:43:50.969Z,200
2018-12-07T11:44:59.034Z,200
2018-12-07T11:46:07.127Z,240
2018-12-07T11:47:15.176Z,240
2018-12-07T11:48:23.233Z,255
2018-12-07T11:49:31.273Z,255
2018-12-07T11:50:39.359Z,250
2018-12-07T11:51:47.443Z,250
2018-12-07T11:52:55.503Z,270
2018-12-07T11:54:03.543Z,290
2018-12-07T11:55:11.600Z,295
2018-12-07T11:56:19.694Z,245
2018-12-07T11:57:27.777Z,240
2018-12-07T11:58:35.932Z,190
2018-12-07T11:59:43.877Z,170
2018-12-07T12:00:51.941Z,170
2018-12-07T12:02:00.006Z,175
2018-12-07T12:03:08.068Z,185
2018-12-07T12:04:16.128Z,195
2018-12-07T12:05:24.210Z,200
2018-12-07T12:06:32.269Z,200
2018-12-07T12:07:40.319Z,180
2018-12-07T12:08:48.383Z,175
2018-12-07T12:09:56.429Z,175
2018-12-07T12:11:04.517Z,185
2018-12-07T12:12:12.565Z,205
2018-12-07T12:13:20.626Z,230
2018-12-07T12:14:28.718Z,225
2018-12-07T12:15:36.764Z,210
2018-12-07T12:16:44.821Z,195
2018-12-07T12:17:52.909Z,185
2018-12-07T12:19:00.929Z,155
2018-12-07T12:20:09.027Z,155
2018-12-07T12:21:17.096Z,145
2018-12-07T12:22:25.142Z,135
2018-12-07T12:23:33.225Z,110
2018-12-07T12:24:41.265Z,105
2018-12-07T12:25:49.340Z,120
2018-12-07T12:26:57.413Z,135
2018-12-07T12:28:05.465Z,140
2018-12-07T12:29:13.540Z,170
2018-12-07T12:30:21.565Z,150
2018-12-07T12:31:29.668Z,140
2018-12-07T12:32:37.758Z,120
2018-12-07T12:33:45.802Z,95
2018-12-07T12:34:53.854Z,75
2018-12-07T12:36:01.891Z,70
2018-12-07T12:37:09.974Z,65
2018-12-07T12:38:18.045Z,70
2018-12-07T12:39:26.104Z,60
2018-12-07T12:40:34.168Z,55
2018-12-07T12:41:46.664Z,70
2018-12-07T12:42:50.302Z,75
2018-12-07T12:43:58.366Z,100
2018-12-07T12:45:06.419Z,110
2018-12-07T12:46:14.495Z,125
2018-12-07T12:47:22.562Z,150
2018-12-07T12:48:30.602Z,110
2018-12-07T12:49:38.676Z,105
2018-12-07T12:50:46.727Z,90
2018-12-07T12:51:54.837Z,80
2018-12-07T12:53:02.870Z,100
2018-12-07T12:54:10.912Z,110
2018-12-07T12:55:18.993Z,125
2018-12-07T12:56:27.072Z,130
2018-12-07T12:57:35.114Z,135
2018-12-07T12:58:43.167Z,150
2018-12-07T12:59:51.219Z,140
2018-12-07T13:00:59.325Z,135
2018-12-07T13:02:07.386Z,125
2018-12-07T13:03:15.436Z,125
2018-12-07T13:04:23.500Z,140
2018-12-07T13:05:31.542Z,135
2018-12-07T13:06:39.615Z,110
2018-12-07T13:07:47.699Z,115
2018-12-07T13:08:55.760Z,130
2018-12-07T13:10:03.820Z,145
2018-12-07T13:11:11.872Z,150
2018-12-07T13:12:19.955Z,155
2018-12-07T13:13:28.011Z,155
2018-12-07T13:14:36.076Z,150
2018-12-07T13:15:44.131Z,145
2018-12-07T13:16:52.199Z,145
2018-12-07T13:18:00.248Z,155
2018-12-07T13:19:08.334Z,185
2018-12-07T13:20:16.381Z,195
2018-12-07T13:21:24.455Z,220
2018-12-07T13:22:32.526Z,215
2018-12-07T13:23:40.606Z,210
2018-12-07T13:24:48.632Z,200
2018-12-07T13:25:56.697Z,215
2018-12-07T13:27:04.769Z,210
2018-12-07T13:28:12.821Z,235
2018-12-07T13:29:20.871Z,260
2018-12-07T13:30:28.959Z,255
2018-12-07T13:31:37.013Z,275
2018-12-07T13:32:45.098Z,245
2018-12-07T13:33:53.150Z,235
2018-12-07T13:35:01.184Z,200
2018-12-07T13:36:09.277Z,205
2018-12-07T13:37:17.353Z,180
2018-12-07T13:38:25.403Z,205
2018-12-07T13:39:33.648Z,170
2018-12-07T13:40:41.673Z,155
2018-12-07T13:41:50.492Z,145
2018-12-07T13:42:57.721Z,155
2018-12-07T13:44:05.755Z,135
2018-12-07T13:45:13.806Z,120
2018-12-07T13:46:22.032Z,120
2018-12-07T13:47:29.926Z,110
2018-12-07T13:48:38.229Z,120
2018-12-07T13:49:46.136Z,115
2018-12-07T13:50:54.202Z,90
2018-12-07T13:52:02.184Z,100
2018-12-07T13:53:10.338Z,90
2018-12-07T13:54:18.485Z,85
2018-12-07T13:55:26.473Z,70
2018-12-07T13:56:34.617Z,70
2018-12-07T13:57:42.504Z,55
2018-12-07T13:58:50.630Z,70
2018-12-07T13:59:58.680Z,75
2018-12-07T14:01:06.752Z,80
2018-12-07T14:02:14.748Z,70
2018-12-07T14:03:22.807Z,75
2018-12-07T14:04:30.927Z,75
2018-12-07T14:05:38.950Z,70
2018-12-07T14:06:47.036Z,85
2018-12-07T14:07:55.162Z,75
2018-12-07T14:09:03.213Z,85
2018-12-07T14:10:11.202Z,80
2018-12-07T14:11:19.323Z,85
2018-12-07T14:12:27.468Z,80
2018-12-07T14:13:35.390Z,75
2018-12-07T14:14:43.584Z,65
2018-12-07T14:15:51.610Z,70
2018-12-07T14:16:59.579Z,70
2018-12-07T14:18:07.656Z,75
2018-12-07T14:19:15.751Z,85
2018-12-07T14:20:23.949Z,80
2018-12-07T14:21:31.856Z,70
2018-12-07T14:22:39.992Z,90
2018-12-07T14:23:48.053Z,85
2018-12-07T14:24:56.202Z,80
2018-12-07T14:26:04.101Z,80
2018-12-07T14:27:12.243Z,85
2018-12-07T14:28:20.208Z,75
2018-12-07T14:29:29.702Z,90
2018-12-07T14:30:36.345Z,75
2018-12-07T14:31:44.419Z,75
2018-12-07T14:32:52.632Z,75
2018-12-07T14:34:00.623Z,75
2018-12-07T14:35:08.612Z,75
2018-12-07T14:36:16.652Z,70
2018-12-07T14:37:24.693Z,60
2018-12-07T14:38:32.935Z,65
2018-12-07T14:39:40.859Z,50
2018-12-07T14:40:48.916Z,65
2018-12-07T14:41:57.009Z,65
2018-12-07T14:43:05.014Z,60
2018-12-07T14:44:13.204Z,60
2018-12-07T14:45:21.147Z,55
2018-12-07T14:46:29.339Z,55
2018-12-07T14:47:37.357Z,55
2018-12-07T14:48:45.457Z,45
2018-12-07T14:49:53.529Z,45
2018-12-07T14:51:01.678Z,45
2018-12-07T14:52:09.701Z,40
2018-12-07T14:53:17.716Z,35
2018-12-07T14:54:25.644Z,35
2018-12-07T14:55:33.711Z,35
2018-12-07T14:56:41.748Z,35
2018-12-07T14:57:49.862Z,30
2018-12-07T14:58:58.076Z,35
2018-12-07T15:00:06.063Z,30
2018-12-07T15:01:14.016Z,30
2018-12-07T15:02:22.101Z,30
2018-12-07T15:03:30.236Z,30
2018-12-07T15:04:38.378Z,30
2018-12-07T15:05:46.506Z,30
2018-12-07T15:06:54.359Z,30
2018-12-07T15:08:02.565Z,25
2018-12-07T15:09:10.490Z,25
2018-12-07T15:10:18.508Z,25
2018-12-07T15:11:26.607Z,20
2018-12-07T15:12:34.627Z,20
2018-12-07T15:13:42.733Z,20
2018-12-07T15:14:50.852Z,20
2018-12-07T15:15:58.895Z,15
2018-12-07T15:17:07.039Z,15
2018-12-07T15:18:14.939Z,15
2018-12-07T15:19:23.016Z,15
2018-12-07T15:20:31.090Z,15
2018-12-07T15:21:39.328Z,15
2018-12-07T15:22:47.387Z,10
2018-12-07T15:23:55.259Z,10
2018-12-07T15:25:03.413Z,10
2018-12-07T15:26:11.543Z,5
2018-12-07T15:27:19.471Z,5
2018-12-07T15:28:27.575Z,5
2018-12-07T15:29:35.790Z,5
2018-12-07T15:30:43.800Z,5
2018-12-07T15:31:51.813Z,5
2018-12-07T15:32:59.848Z,5
2018-12-07T15:34:07.787Z,5
2018-12-07T15:35:16.022Z,0
2018-12-07T15:36:24.059Z,0
2018-12-07T15:37:32.175Z,0
2018-12-07T15:38:40.083Z,0
2018-12-07T15:39:48.242Z,0
2018-12-07T15:40:56.173Z,0
2018-12-07T15:42:04.249Z,0
2018-12-07T15:43:12.297Z,0
2018-12-07T15:44:20.574Z,0
2018-12-07T15:45:28.419Z,0
2018-12-07T15:46:36.676Z,0
2018-12-07T15:47:44.605Z,0
2018-12-07T15:48:52.811Z,0
2018-12-07T15:50:00.749Z,0
2018-12-07T15:51:08.871Z,0
2018-12-07T15:52:16.830Z,0
2018-12-07T15:53:24.907Z,0
2018-12-07T15:54:33.127Z,0
2018-12-07T15:55:41.035Z,0
2018-12-07T15:56:49.200Z,0
2018-12-07T15:57:57.306Z,0
2018-12-07T15:59:05.220Z,0
2018-12-07T16:00:13.279Z,0
2018-12-07T16:01:21.481Z,0
2018-12-07T16:02:29.586Z,0
2018-12-07T16:03:37.403Z,0
2018-12-07T16:04:45.599Z,0
2018-12-07T16:05:53.537Z,0
2018-12-07T16:07:01.649Z,0
2018-12-07T16:08:09.921Z,0
2018-12-07T16:09:17.740Z,0
2018-12-07T16:10:26.000Z,0
2018-12-07T16:11:33.862Z,0
2018-12-07T16:12:41.922Z,0
2018-12-07T16:13:49.958Z,0
2018-12-07T16:14:58.189Z,0
2018-12-07T16:16:06.093Z,0
2018-12-07T16:17:14.214Z,0
2018-12-07T16:18:22.199Z,0
2018-12-07T16:19:30.350Z,0
2018-12-07T16:20:38.613Z,0